sensor_id;sensor_type;location;lat;lon;timestamp;P1;durP1;ratioP1;P2;durP2;ratioP2
70532;SDS011;58088;51.186;17.130;2023-06-14T00:01:54;9.20;;;4.10;;
70532;SDS011;58088;51.186;17.130;2023-06-14T00:04:21;7.60;;;4.30;;
70532;SDS011;58088;51.186;17.130;2023-06-14T00:06:47;7.90;;;4.40;;
70532;SDS011;58088;51.186;17.130;2023-06-14T00:09:16;7.30;;;3.90;;
70532;SDS011;58088;51.186;17.130;2023-06-14T00:11:43;8.90;;;4.80;;
70532;SDS011;58088;51.186;17.130;2023-06-14T00:14:10;8.80;;;4.50;;
70532;SDS011;58088;51.186;17.130;2023-06-14T00:16:37;6.90;;;4.00;;
70532;SDS011;58088;51.186;17.130;2023-06-14T00:19:04;8.60;;;4.70;;
70532;SDS011;58088;51.186;17.130;2023-06-14T00:21:31;9.80;;;4.50;;
70532;SDS011;58088;51.186;17.130;2023-06-14T00:23:58;8.30;;;4.70;;
70532;SDS011;58088;51.186;17.130;2023-06-14T00:26:25;8.40;;;4.30;;
70532;SDS011;58088;51.186;17.130;2023-06-14T00:28:52;7.60;;;4.30;;
70532;SDS011;58088;51.186;17.130;2023-06-14T00:31:20;7.60;;;4.60;;
70532;SDS011;58088;51.186;17.130;2023-06-14T00:33:46;8.40;;;4.50;;
70532;SDS011;58088;51.186;17.130;2023-06-14T00:36:12;8.50;;;4.60;;
70532;SDS011;58088;51.186;17.130;2023-06-14T00:38:39;9.50;;;4.70;;
70532;SDS011;58088;51.186;17.130;2023-06-14T00:41:05;9.60;;;5.30;;
70532;SDS011;58088;51.186;17.130;2023-06-14T00:43:32;10.10;;;4.90;;
70532;SDS011;58088;51.186;17.130;2023-06-14T00:46:00;11.20;;;5.10;;
70532;SDS011;58088;51.186;17.130;2023-06-14T00:48:27;8.90;;;5.10;;
70532;SDS011;58088;51.186;17.130;2023-06-14T00:50:54;9.20;;;5.00;;
70532;SDS011;58088;51.186;17.130;2023-06-14T00:53:21;9.00;;;5.10;;
70532;SDS011;58088;51.186;17.130;2023-06-14T00:55:48;8.20;;;4.70;;
70532;SDS011;58088;51.186;17.130;2023-06-14T00:58:17;8.60;;;4.70;;
70532;SDS011;58088;51.186;17.130;2023-06-14T01:00:44;10.00;;;5.00;;
70532;SDS011;58088;51.186;17.130;2023-06-14T01:03:11;9.70;;;5.20;;
70532;SDS011;58088;51.186;17.130;2023-06-14T01:05:39;9.20;;;5.20;;
70532;SDS011;58088;51.186;17.130;2023-06-14T01:08:31;11.20;;;5.80;;
70532;SDS011;58088;51.186;17.130;2023-06-14T01:11:31;8.50;;;4.40;;
70532;SDS011;58088;51.186;17.130;2023-06-14T01:14:02;9.80;;;5.10;;
70532;SDS011;58088;51.186;17.130;2023-06-14T01:16:30;8.90;;;4.50;;
70532;SDS011;58088;51.186;17.130;2023-06-14T01:18:58;8.90;;;4.90;;
70532;SDS011;58088;51.186;17.130;2023-06-14T01:21:26;9.70;;;5.00;;
70532;SDS011;58088;51.186;17.130;2023-06-14T01:23:54;8.30;;;4.60;;
70532;SDS011;58088;51.186;17.130;2023-06-14T01:26:22;10.50;;;4.70;;
70532;SDS011;58088;51.186;17.130;2023-06-14T01:28:52;9.40;;;4.90;;
70532;SDS011;58088;51.186;17.130;2023-06-14T01:31:24;8.90;;;4.80;;
70532;SDS011;58088;51.186;17.130;2023-06-14T01:33:53;9.50;;;5.00;;
70532;SDS011;58088;51.186;17.130;2023-06-14T01:36:19;8.20;;;4.50;;
70532;SDS011;58088;51.186;17.130;2023-06-14T01:38:48;8.40;;;4.80;;
70532;SDS011;58088;51.186;17.130;2023-06-14T01:41:17;10.40;;;4.90;;
70532;SDS011;58088;51.186;17.130;2023-06-14T01:43:47;8.20;;;4.80;;
70532;SDS011;58088;51.186;17.130;2023-06-14T01:46:15;9.50;;;5.50;;
70532;SDS011;58088;51.186;17.130;2023-06-14T01:48:42;11.00;;;5.40;;
70532;SDS011;58088;51.186;17.130;2023-06-14T01:51:09;10.60;;;5.00;;
70532;SDS011;58088;51.186;17.130;2023-06-14T01:53:35;10.00;;;4.70;;
70532;SDS011;58088;51.186;17.130;2023-06-14T01:56:02;9.10;;;4.70;;
70532;SDS011;58088;51.186;17.130;2023-06-14T01:58:30;8.70;;;4.40;;
70532;SDS011;58088;51.186;17.130;2023-06-14T02:00:57;7.50;;;4.20;;
70532;SDS011;58088;51.186;17.130;2023-06-14T02:03:42;8.30;;;4.10;;
70532;SDS011;58088;51.186;17.130;2023-06-14T02:06:10;9.20;;;5.00;;
70532;SDS011;58088;51.186;17.130;2023-06-14T02:08:38;9.30;;;4.70;;
70532;SDS011;58088;51.186;17.130;2023-06-14T02:11:05;7.90;;;4.40;;
70532;SDS011;58088;51.186;17.130;2023-06-14T02:13:31;8.40;;;4.30;;
70532;SDS011;58088;51.186;17.130;2023-06-14T02:15:58;9.10;;;4.70;;
70532;SDS011;58088;51.186;17.130;2023-06-14T02:18:25;9.70;;;4.80;;
70532;SDS011;58088;51.186;17.130;2023-06-14T02:20:51;10.40;;;5.10;;
70532;SDS011;58088;51.186;17.130;2023-06-14T02:23:18;10.10;;;5.30;;
70532;SDS011;58088;51.186;17.130;2023-06-14T02:25:44;9.10;;;5.10;;
70532;SDS011;58088;51.186;17.130;2023-06-14T02:28:11;9.20;;;4.60;;
70532;SDS011;58088;51.186;17.130;2023-06-14T02:30:38;10.30;;;4.70;;
70532;SDS011;58088;51.186;17.130;2023-06-14T02:33:05;13.30;;;4.70;;
70532;SDS011;58088;51.186;17.130;2023-06-14T02:35:31;11.10;;;5.20;;
70532;SDS011;58088;51.186;17.130;2023-06-14T02:37:58;12.10;;;4.80;;
70532;SDS011;58088;51.186;17.130;2023-06-14T02:40:24;8.40;;;4.40;;
70532;SDS011;58088;51.186;17.130;2023-06-14T02:42:50;9.00;;;4.50;;
70532;SDS011;58088;51.186;17.130;2023-06-14T02:45:17;8.60;;;4.40;;
70532;SDS011;58088;51.186;17.130;2023-06-14T02:47:43;8.90;;;4.20;;
70532;SDS011;58088;51.186;17.130;2023-06-14T02:50:12;7.60;;;4.00;;
70532;SDS011;58088;51.186;17.130;2023-06-14T02:52:38;9.10;;;4.40;;
70532;SDS011;58088;51.186;17.130;2023-06-14T02:55:08;9.20;;;5.10;;
70532;SDS011;58088;51.186;17.130;2023-06-14T02:57:35;8.40;;;4.80;;
70532;SDS011;58088;51.186;17.130;2023-06-14T03:00:02;9.00;;;4.70;;
70532;SDS011;58088;51.186;17.130;2023-06-14T03:02:30;9.50;;;5.10;;
70532;SDS011;58088;51.186;17.130;2023-06-14T03:04:56;9.00;;;4.90;;
70532;SDS011;58088;51.186;17.130;2023-06-14T03:07:28;8.80;;;5.00;;
70532;SDS011;58088;51.186;17.130;2023-06-14T03:09:56;9.70;;;4.90;;
70532;SDS011;58088;51.186;17.130;2023-06-14T03:12:22;9.80;;;5.10;;
70532;SDS011;58088;51.186;17.130;2023-06-14T03:14:49;11.20;;;5.50;;
70532;SDS011;58088;51.186;17.130;2023-06-14T03:17:18;9.70;;;5.00;;
70532;SDS011;58088;51.186;17.130;2023-06-14T03:19:45;10.80;;;5.50;;
70532;SDS011;58088;51.186;17.130;2023-06-14T03:22:12;9.40;;;5.10;;
70532;SDS011;58088;51.186;17.130;2023-06-14T03:24:38;10.80;;;4.90;;
70532;SDS011;58088;51.186;17.130;2023-06-14T03:27:10;9.30;;;5.10;;
70532;SDS011;58088;51.186;17.130;2023-06-14T03:29:37;10.70;;;5.30;;
70532;SDS011;58088;51.186;17.130;2023-06-14T03:32:03;9.00;;;5.40;;
70532;SDS011;58088;51.186;17.130;2023-06-14T03:34:36;10.70;;;5.30;;
70532;SDS011;58088;51.186;17.130;2023-06-14T03:37:05;10.80;;;5.10;;
70532;SDS011;58088;51.186;17.130;2023-06-14T03:39:31;10.10;;;4.90;;
70532;SDS011;58088;51.186;17.130;2023-06-14T03:41:57;8.90;;;5.10;;
70532;SDS011;58088;51.186;17.130;2023-06-14T03:44:26;9.20;;;5.10;;
70532;SDS011;58088;51.186;17.130;2023-06-14T03:46:53;11.60;;;5.20;;
70532;SDS011;58088;51.186;17.130;2023-06-14T03:49:19;9.40;;;4.90;;
70532;SDS011;58088;51.186;17.130;2023-06-14T03:51:45;10.80;;;5.10;;
70532;SDS011;58088;51.186;17.130;2023-06-14T03:54:18;9.20;;;4.70;;
70532;SDS011;58088;51.186;17.130;2023-06-14T03:56:44;8.70;;;5.00;;
70532;SDS011;58088;51.186;17.130;2023-06-14T03:59:12;10.00;;;5.20;;
70532;SDS011;58088;51.186;17.130;2023-06-14T04:01:38;10.30;;;5.10;;
70532;SDS011;58088;51.186;17.130;2023-06-14T04:04:13;10.70;;;5.10;;
70532;SDS011;58088;51.186;17.130;2023-06-14T04:06:42;8.50;;;4.70;;
70532;SDS011;58088;51.186;17.130;2023-06-14T04:09:10;9.20;;;5.20;;
70532;SDS011;58088;51.186;17.130;2023-06-14T04:11:36;13.90;;;6.40;;
70532;SDS011;58088;51.186;17.130;2023-06-14T04:14:02;12.60;;;5.60;;
70532;SDS011;58088;51.186;17.130;2023-06-14T04:16:29;10.90;;;5.40;;
70532;SDS011;58088;51.186;17.130;2023-06-14T04:18:56;10.80;;;5.90;;
70532;SDS011;58088;51.186;17.130;2023-06-14T04:21:24;10.90;;;5.30;;
70532;SDS011;58088;51.186;17.130;2023-06-14T04:23:53;10.90;;;5.60;;
70532;SDS011;58088;51.186;17.130;2023-06-14T04:26:23;9.70;;;5.50;;
70532;SDS011;58088;51.186;17.130;2023-06-14T04:28:56;9.90;;;5.80;;
70532;SDS011;58088;51.186;17.130;2023-06-14T04:31:28;9.70;;;5.90;;
70532;SDS011;58088;51.186;17.130;2023-06-14T04:33:56;12.30;;;6.10;;
70532;SDS011;58088;51.186;17.130;2023-06-14T04:36:22;11.60;;;6.80;;
70532;SDS011;58088;51.186;17.130;2023-06-14T04:38:49;12.90;;;7.20;;
70532;SDS011;58088;51.186;17.130;2023-06-14T04:41:21;13.90;;;7.40;;
70532;SDS011;58088;51.186;17.130;2023-06-14T04:43:49;13.30;;;7.60;;
70532;SDS011;58088;51.186;17.130;2023-06-14T04:46:16;17.40;;;8.20;;
70532;SDS011;58088;51.186;17.130;2023-06-14T04:48:42;14.60;;;8.70;;
70532;SDS011;58088;51.186;17.130;2023-06-14T04:51:10;14.60;;;8.40;;
70532;SDS011;58088;51.186;17.130;2023-06-14T04:53:36;16.30;;;8.50;;
70532;SDS011;58088;51.186;17.130;2023-06-14T04:56:04;15.70;;;8.90;;
70532;SDS011;58088;51.186;17.130;2023-06-14T04:58:31;15.80;;;9.00;;
70532;SDS011;58088;51.186;17.130;2023-06-14T05:00:59;14.10;;;9.00;;
70532;SDS011;58088;51.186;17.130;2023-06-14T05:03:26;13.70;;;8.70;;
70532;SDS011;58088;51.186;17.130;2023-06-14T05:05:53;14.80;;;8.70;;
70532;SDS011;58088;51.186;17.130;2023-06-14T05:08:21;19.10;;;9.70;;
70532;SDS011;58088;51.186;17.130;2023-06-14T05:10:50;14.00;;;8.00;;
70532;SDS011;58088;51.186;17.130;2023-06-14T05:13:17;13.00;;;8.00;;
70532;SDS011;58088;51.186;17.130;2023-06-14T05:15:45;14.70;;;8.50;;
70532;SDS011;58088;51.186;17.130;2023-06-14T05:18:11;14.60;;;8.70;;
70532;SDS011;58088;51.186;17.130;2023-06-14T05:20:38;16.40;;;10.00;;
70532;SDS011;58088;51.186;17.130;2023-06-14T05:23:05;17.80;;;10.20;;
70532;SDS011;58088;51.186;17.130;2023-06-14T05:25:32;20.10;;;10.80;;
70532;SDS011;58088;51.186;17.130;2023-06-14T05:27:58;16.70;;;9.90;;
70532;SDS011;58088;51.186;17.130;2023-06-14T05:30:24;17.20;;;9.60;;
70532;SDS011;58088;51.186;17.130;2023-06-14T05:32:50;16.90;;;9.70;;
70532;SDS011;58088;51.186;17.130;2023-06-14T05:35:18;17.60;;;9.60;;
70532;SDS011;58088;51.186;17.130;2023-06-14T05:37:44;18.20;;;10.50;;
70532;SDS011;58088;51.186;17.130;2023-06-14T05:40:11;20.10;;;10.20;;
70532;SDS011;58088;51.186;17.130;2023-06-14T05:42:37;18.00;;;9.90;;
70532;SDS011;58088;51.186;17.130;2023-06-14T05:45:04;18.60;;;10.50;;
70532;SDS011;58088;51.186;17.130;2023-06-14T05:47:31;18.10;;;10.50;;
70532;SDS011;58088;51.186;17.130;2023-06-14T05:49:57;18.50;;;9.90;;
70532;SDS011;58088;51.186;17.130;2023-06-14T05:52:23;18.20;;;10.40;;
70532;SDS011;58088;51.186;17.130;2023-06-14T05:54:50;22.00;;;11.80;;
70532;SDS011;58088;51.186;17.130;2023-06-14T05:57:17;19.80;;;10.50;;
70532;SDS011;58088;51.186;17.130;2023-06-14T05:59:43;19.30;;;10.60;;
70532;SDS011;58088;51.186;17.130;2023-06-14T06:02:09;18.20;;;9.60;;
70532;SDS011;58088;51.186;17.130;2023-06-14T06:04:35;19.00;;;10.80;;
70532;SDS011;58088;51.186;17.130;2023-06-14T06:07:01;17.00;;;10.30;;
70532;SDS011;58088;51.186;17.130;2023-06-14T06:09:28;17.20;;;9.80;;
70532;SDS011;58088;51.186;17.130;2023-06-14T06:11:54;19.50;;;10.40;;
70532;SDS011;58088;51.186;17.130;2023-06-14T06:14:20;21.20;;;10.60;;
70532;SDS011;58088;51.186;17.130;2023-06-14T06:16:46;22.20;;;10.80;;
70532;SDS011;58088;51.186;17.130;2023-06-14T06:19:13;18.20;;;10.50;;
70532;SDS011;58088;51.186;17.130;2023-06-14T06:21:39;17.80;;;10.20;;
70532;SDS011;58088;51.186;17.130;2023-06-14T06:24:05;21.50;;;10.50;;
70532;SDS011;58088;51.186;17.130;2023-06-14T06:26:32;18.50;;;10.20;;
70532;SDS011;58088;51.186;17.130;2023-06-14T06:28:58;20.00;;;11.00;;
70532;SDS011;58088;51.186;17.130;2023-06-14T06:31:25;19.70;;;11.00;;
70532;SDS011;58088;51.186;17.130;2023-06-14T06:33:54;19.80;;;12.10;;
70532;SDS011;58088;51.186;17.130;2023-06-14T06:36:20;18.90;;;11.10;;
70532;SDS011;58088;51.186;17.130;2023-06-14T06:38:47;21.30;;;10.80;;
70532;SDS011;58088;51.186;17.130;2023-06-14T06:41:14;19.30;;;9.80;;
70532;SDS011;58088;51.186;17.130;2023-06-14T06:43:40;15.80;;;9.20;;
70532;SDS011;58088;51.186;17.130;2023-06-14T06:46:08;20.40;;;10.70;;
70532;SDS011;58088;51.186;17.130;2023-06-14T06:48:35;18.60;;;10.20;;
70532;SDS011;58088;51.186;17.130;2023-06-14T06:51:01;20.90;;;11.40;;
70532;SDS011;58088;51.186;17.130;2023-06-14T06:53:27;20.70;;;11.00;;
70532;SDS011;58088;51.186;17.130;2023-06-14T06:55:53;20.40;;;11.50;;
70532;SDS011;58088;51.186;17.130;2023-06-14T06:58:20;24.20;;;12.50;;
70532;SDS011;58088;51.186;17.130;2023-06-14T07:00:47;21.80;;;11.60;;
70532;SDS011;58088;51.186;17.130;2023-06-14T07:03:14;20.60;;;11.70;;
70532;SDS011;58088;51.186;17.130;2023-06-14T07:05:40;22.80;;;11.50;;
70532;SDS011;58088;51.186;17.130;2023-06-14T07:08:06;20.20;;;11.70;;
70532;SDS011;58088;51.186;17.130;2023-06-14T07:10:32;19.80;;;10.80;;
70532;SDS011;58088;51.186;17.130;2023-06-14T07:12:58;19.00;;;10.70;;
70532;SDS011;58088;51.186;17.130;2023-06-14T07:15:25;18.80;;;10.50;;
70532;SDS011;58088;51.186;17.130;2023-06-14T07:17:51;19.10;;;10.30;;
70532;SDS011;58088;51.186;17.130;2023-06-14T07:20:18;16.80;;;9.30;;
70532;SDS011;58088;51.186;17.130;2023-06-14T07:22:47;19.20;;;10.70;;
70532;SDS011;58088;51.186;17.130;2023-06-14T07:25:14;20.00;;;10.20;;
70532;SDS011;58088;51.186;17.130;2023-06-14T07:27:41;17.40;;;10.40;;
70532;SDS011;58088;51.186;17.130;2023-06-14T07:30:08;20.80;;;10.80;;
70532;SDS011;58088;51.186;17.130;2023-06-14T07:32:36;20.60;;;12.00;;
70532;SDS011;58088;51.186;17.130;2023-06-14T07:35:02;16.90;;;10.20;;
70532;SDS011;58088;51.186;17.130;2023-06-14T07:37:29;16.20;;;9.70;;
70532;SDS011;58088;51.186;17.130;2023-06-14T07:39:55;18.70;;;10.90;;
70532;SDS011;58088;51.186;17.130;2023-06-14T07:42:21;18.70;;;10.60;;
70532;SDS011;58088;51.186;17.130;2023-06-14T07:44:47;18.80;;;11.00;;
70532;SDS011;58088;51.186;17.130;2023-06-14T07:47:13;19.40;;;11.30;;
70532;SDS011;58088;51.186;17.130;2023-06-14T07:49:39;18.30;;;10.10;;
70532;SDS011;58088;51.186;17.130;2023-06-14T07:52:06;18.70;;;11.00;;
70532;SDS011;58088;51.186;17.130;2023-06-14T07:54:32;18.90;;;10.90;;
70532;SDS011;58088;51.186;17.130;2023-06-14T07:56:59;17.50;;;9.90;;
70532;SDS011;58088;51.186;17.130;2023-06-14T07:59:26;18.10;;;10.40;;
70532;SDS011;58088;51.186;17.130;2023-06-14T08:01:52;15.90;;;9.40;;
70532;SDS011;58088;51.186;17.130;2023-06-14T08:04:19;15.90;;;9.30;;
70532;SDS011;58088;51.186;17.130;2023-06-14T08:06:45;16.10;;;9.30;;
70532;SDS011;58088;51.186;17.130;2023-06-14T08:09:12;16.80;;;9.70;;
70532;SDS011;58088;51.186;17.130;2023-06-14T08:11:38;14.90;;;8.60;;
70532;SDS011;58088;51.186;17.130;2023-06-14T08:14:04;16.80;;;10.40;;
70532;SDS011;58088;51.186;17.130;2023-06-14T08:16:30;15.00;;;9.00;;
70532;SDS011;58088;51.186;17.130;2023-06-14T08:18:57;17.10;;;9.20;;
70532;SDS011;58088;51.186;17.130;2023-06-14T08:21:23;13.70;;;8.50;;
70532;SDS011;58088;51.186;17.130;2023-06-14T08:23:49;14.90;;;8.60;;
70532;SDS011;58088;51.186;17.130;2023-06-14T08:26:18;16.10;;;9.50;;
70532;SDS011;58088;51.186;17.130;2023-06-14T08:28:45;12.50;;;8.00;;
70532;SDS011;58088;51.186;17.130;2023-06-14T08:31:11;13.10;;;8.10;;
70532;SDS011;58088;51.186;17.130;2023-06-14T08:33:37;13.80;;;7.40;;
70532;SDS011;58088;51.186;17.130;2023-06-14T08:36:04;12.20;;;7.90;;
70532;SDS011;58088;51.186;17.130;2023-06-14T08:38:31;15.60;;;8.00;;
70532;SDS011;58088;51.186;17.130;2023-06-14T08:40:57;10.90;;;6.90;;
70532;SDS011;58088;51.186;17.130;2023-06-14T08:43:24;12.40;;;7.80;;
70532;SDS011;58088;51.186;17.130;2023-06-14T08:45:54;12.20;;;6.40;;
70532;SDS011;58088;51.186;17.130;2023-06-14T08:48:28;12.20;;;7.40;;
70532;SDS011;58088;51.186;17.130;2023-06-14T08:51:00;10.90;;;6.80;;
70532;SDS011;58088;51.186;17.130;2023-06-14T08:53:31;9.90;;;6.70;;
70532;SDS011;58088;51.186;17.130;2023-06-14T08:56:00;10.60;;;6.40;;
70532;SDS011;58088;51.186;17.130;2023-06-14T08:58:31;11.30;;;6.40;;
70532;SDS011;58088;51.186;17.130;2023-06-14T09:01:01;10.30;;;6.40;;
70532;SDS011;58088;51.186;17.130;2023-06-14T09:03:27;14.30;;;6.40;;
70532;SDS011;58088;51.186;17.130;2023-06-14T09:05:57;9.50;;;6.50;;
70532;SDS011;58088;51.186;17.130;2023-06-14T09:08:25;11.50;;;6.70;;
70532;SDS011;58088;51.186;17.130;2023-06-14T09:10:56;10.90;;;6.30;;
70532;SDS011;58088;51.186;17.130;2023-06-14T09:13:23;10.80;;;6.10;;
70532;SDS011;58088;51.186;17.130;2023-06-14T09:15:49;9.20;;;5.80;;
70532;SDS011;58088;51.186;17.130;2023-06-14T09:18:16;11.00;;;6.70;;
70532;SDS011;58088;51.186;17.130;2023-06-14T09:20:43;13.20;;;6.40;;
70532;SDS011;58088;51.186;17.130;2023-06-14T09:23:09;9.90;;;6.20;;
70532;SDS011;58088;51.186;17.130;2023-06-14T09:25:45;10.10;;;6.10;;
70532;SDS011;58088;51.186;17.130;2023-06-14T09:28:12;9.90;;;5.80;;
70532;SDS011;58088;51.186;17.130;2023-06-14T09:30:38;13.40;;;6.20;;
70532;SDS011;58088;51.186;17.130;2023-06-14T09:33:04;12.70;;;6.10;;
70532;SDS011;58088;51.186;17.130;2023-06-14T09:35:33;12.10;;;6.20;;
70532;SDS011;58088;51.186;17.130;2023-06-14T09:38:01;11.50;;;5.80;;
70532;SDS011;58088;51.186;17.130;2023-06-14T09:40:28;11.60;;;6.80;;
70532;SDS011;58088;51.186;17.130;2023-06-14T09:42:54;10.00;;;6.30;;
70532;SDS011;58088;51.186;17.130;2023-06-14T09:45:25;11.60;;;6.50;;
70532;SDS011;58088;51.186;17.130;2023-06-14T09:47:55;9.60;;;5.00;;
70532;SDS011;58088;51.186;17.130;2023-06-14T09:50:22;10.20;;;4.80;;
70532;SDS011;58088;51.186;17.130;2023-06-14T09:52:51;9.30;;;4.60;;
70532;SDS011;58088;51.186;17.130;2023-06-14T09:55:18;9.70;;;5.30;;
70532;SDS011;58088;51.186;17.130;2023-06-14T09:57:47;10.00;;;5.70;;
70532;SDS011;58088;51.186;17.130;2023-06-14T10:00:15;8.30;;;5.00;;
70532;SDS011;58088;51.186;17.130;2023-06-14T10:02:48;8.80;;;5.20;;
70532;SDS011;58088;51.186;17.130;2023-06-14T10:05:19;9.60;;;5.30;;
70532;SDS011;58088;51.186;17.130;2023-06-14T10:10:16;9.60;;;5.30;;
70532;SDS011;58088;51.186;17.130;2023-06-14T10:12:42;21.50;;;5.20;;
70532;SDS011;58088;51.186;17.130;2023-06-14T10:15:20;11.30;;;4.80;;
70532;SDS011;58088;51.186;17.130;2023-06-14T10:21:05;10.40;;;5.20;;
70532;SDS011;58088;51.186;17.130;2023-06-14T10:23:41;8.70;;;4.70;;
70532;SDS011;58088;51.186;17.130;2023-06-14T10:26:18;7.90;;;4.60;;
70532;SDS011;58088;51.186;17.130;2023-06-14T10:28:57;8.90;;;4.60;;
70532;SDS011;58088;51.186;17.130;2023-06-14T10:31:48;9.80;;;4.90;;
70532;SDS011;58088;51.186;17.130;2023-06-14T10:34:42;11.10;;;4.40;;
70532;SDS011;58088;51.186;17.130;2023-06-14T10:37:13;9.00;;;4.20;;
70532;SDS011;58088;51.186;17.130;2023-06-14T10:39:44;6.20;;;3.60;;
70532;SDS011;58088;51.186;17.130;2023-06-14T10:42:15;7.00;;;3.90;;
70532;SDS011;58088;51.186;17.130;2023-06-14T10:44:54;9.20;;;4.30;;
70532;SDS011;58088;51.186;17.130;2023-06-14T10:50:04;9.90;;;4.10;;
70532;SDS011;58088;51.186;17.130;2023-06-14T10:52:41;8.40;;;4.00;;
70532;SDS011;58088;51.186;17.130;2023-06-14T10:55:16;7.10;;;4.00;;
70532;SDS011;58088;51.186;17.130;2023-06-14T10:57:45;8.30;;;4.10;;
70532;SDS011;58088;51.186;17.130;2023-06-14T11:00:19;7.90;;;4.10;;
70532;SDS011;58088;51.186;17.130;2023-06-14T11:08:51;8.20;;;3.70;;
70532;SDS011;58088;51.186;17.130;2023-06-14T11:11:36;7.80;;;3.90;;
70532;SDS011;58088;51.186;17.130;2023-06-14T11:14:04;7.30;;;3.90;;
70532;SDS011;58088;51.186;17.130;2023-06-14T11:16:30;7.40;;;3.40;;
70532;SDS011;58088;51.186;17.130;2023-06-14T11:19:01;7.40;;;4.00;;
70532;SDS011;58088;51.186;17.130;2023-06-14T11:21:28;8.80;;;3.70;;
70532;SDS011;58088;51.186;17.130;2023-06-14T11:23:57;7.50;;;3.40;;
70532;SDS011;58088;51.186;17.130;2023-06-14T11:26:30;8.70;;;4.30;;
70532;SDS011;58088;51.186;17.130;2023-06-14T11:29:00;7.20;;;4.10;;
70532;SDS011;58088;51.186;17.130;2023-06-14T11:31:28;10.00;;;4.70;;
70532;SDS011;58088;51.186;17.130;2023-06-14T11:33:55;7.60;;;3.90;;
70532;SDS011;58088;51.186;17.130;2023-06-14T11:36:26;6.50;;;3.70;;
70532;SDS011;58088;51.186;17.130;2023-06-14T11:39:02;9.30;;;3.60;;
70532;SDS011;58088;51.186;17.130;2023-06-14T11:41:43;8.40;;;4.00;;
70532;SDS011;58088;51.186;17.130;2023-06-14T11:44:10;8.90;;;3.80;;
70532;SDS011;58088;51.186;17.130;2023-06-14T11:46:38;6.70;;;3.70;;
70532;SDS011;58088;51.186;17.130;2023-06-14T11:49:05;7.30;;;4.10;;
70532;SDS011;58088;51.186;17.130;2023-06-14T11:51:34;7.90;;;3.80;;
70532;SDS011;58088;51.186;17.130;2023-06-14T11:54:02;7.00;;;4.00;;
70532;SDS011;58088;51.186;17.130;2023-06-14T11:56:32;11.00;;;4.40;;
70532;SDS011;58088;51.186;17.130;2023-06-14T11:58:58;8.10;;;4.30;;
70532;SDS011;58088;51.186;17.130;2023-06-14T12:01:25;7.70;;;4.30;;
70532;SDS011;58088;51.186;17.130;2023-06-14T12:03:54;9.70;;;4.80;;
70532;SDS011;58088;51.186;17.130;2023-06-14T12:06:28;8.70;;;4.80;;
70532;SDS011;58088;51.186;17.130;2023-06-14T12:08:58;10.50;;;5.40;;
70532;SDS011;58088;51.186;17.130;2023-06-14T12:11:31;10.00;;;4.60;;
70532;SDS011;58088;51.186;17.130;2023-06-14T12:13:59;8.00;;;4.30;;
70532;SDS011;58088;51.186;17.130;2023-06-14T12:16:31;10.90;;;4.40;;
70532;SDS011;58088;51.186;17.130;2023-06-14T12:19:14;7.50;;;4.00;;
70532;SDS011;58088;51.186;17.130;2023-06-14T12:21:45;9.40;;;4.50;;
70532;SDS011;58088;51.186;17.130;2023-06-14T12:24:16;10.10;;;4.40;;
70532;SDS011;58088;51.186;17.130;2023-06-14T12:26:42;7.20;;;4.10;;
70532;SDS011;58088;51.186;17.130;2023-06-14T12:29:09;10.00;;;4.90;;
70532;SDS011;58088;51.186;17.130;2023-06-14T12:31:35;13.10;;;5.00;;
70532;SDS011;58088;51.186;17.130;2023-06-14T12:34:03;10.60;;;4.60;;
70532;SDS011;58088;51.186;17.130;2023-06-14T12:36:29;13.00;;;5.20;;
70532;SDS011;58088;51.186;17.130;2023-06-14T12:38:55;9.30;;;4.90;;
70532;SDS011;58088;51.186;17.130;2023-06-14T12:41:21;9.10;;;4.50;;
70532;SDS011;58088;51.186;17.130;2023-06-14T12:43:48;8.20;;;4.20;;
70532;SDS011;58088;51.186;17.130;2023-06-14T12:46:14;11.10;;;5.40;;
70532;SDS011;58088;51.186;17.130;2023-06-14T12:48:40;13.20;;;6.00;;
70532;SDS011;58088;51.186;17.130;2023-06-14T12:51:06;10.90;;;5.50;;
70532;SDS011;58088;51.186;17.130;2023-06-14T12:53:33;11.00;;;5.80;;
70532;SDS011;58088;51.186;17.130;2023-06-14T12:55:59;10.40;;;5.90;;
70532;SDS011;58088;51.186;17.130;2023-06-14T12:58:25;8.50;;;5.60;;
70532;SDS011;58088;51.186;17.130;2023-06-14T13:00:51;8.00;;;5.20;;
70532;SDS011;58088;51.186;17.130;2023-06-14T13:03:17;9.10;;;5.00;;
70532;SDS011;58088;51.186;17.130;2023-06-14T13:05:44;11.40;;;5.80;;
70532;SDS011;58088;51.186;17.130;2023-06-14T13:08:10;10.00;;;5.00;;
70532;SDS011;58088;51.186;17.130;2023-06-14T13:10:37;9.90;;;5.60;;
70532;SDS011;58088;51.186;17.130;2023-06-14T13:13:03;10.60;;;5.10;;
70532;SDS011;58088;51.186;17.130;2023-06-14T13:15:29;9.00;;;5.60;;
70532;SDS011;58088;51.186;17.130;2023-06-14T13:17:56;9.00;;;5.70;;
70532;SDS011;58088;51.186;17.130;2023-06-14T13:20:22;9.50;;;5.20;;
70532;SDS011;58088;51.186;17.130;2023-06-14T13:22:48;10.60;;;5.80;;
70532;SDS011;58088;51.186;17.130;2023-06-14T13:25:15;9.10;;;5.10;;
70532;SDS011;58088;51.186;17.130;2023-06-14T13:27:41;10.60;;;5.10;;
70532;SDS011;58088;51.186;17.130;2023-06-14T13:30:07;10.30;;;5.00;;
70532;SDS011;58088;51.186;17.130;2023-06-14T13:32:35;7.80;;;5.10;;
70532;SDS011;58088;51.186;17.130;2023-06-14T13:35:01;9.70;;;4.60;;
70532;SDS011;58088;51.186;17.130;2023-06-14T13:37:29;9.60;;;5.20;;
70532;SDS011;58088;51.186;17.130;2023-06-14T13:39:56;9.90;;;5.30;;
70532;SDS011;58088;51.186;17.130;2023-06-14T13:42:22;6.80;;;4.10;;
70532;SDS011;58088;51.186;17.130;2023-06-14T13:44:48;8.80;;;4.40;;
70532;SDS011;58088;51.186;17.130;2023-06-14T13:47:17;7.30;;;4.30;;
70532;SDS011;58088;51.186;17.130;2023-06-14T13:49:43;8.10;;;3.70;;
70532;SDS011;58088;51.186;17.130;2023-06-14T13:52:09;8.50;;;3.60;;
70532;SDS011;58088;51.186;17.130;2023-06-14T13:54:35;7.00;;;3.80;;
70532;SDS011;58088;51.186;17.130;2023-06-14T13:57:02;7.50;;;3.60;;
70532;SDS011;58088;51.186;17.130;2023-06-14T13:59:28;9.50;;;4.10;;
70532;SDS011;58088;51.186;17.130;2023-06-14T14:01:54;5.80;;;3.70;;
70532;SDS011;58088;51.186;17.130;2023-06-14T14:04:20;5.90;;;3.60;;
70532;SDS011;58088;51.186;17.130;2023-06-14T14:06:47;9.50;;;3.90;;
70532;SDS011;58088;51.186;17.130;2023-06-14T14:09:14;6.70;;;4.30;;
70532;SDS011;58088;51.186;17.130;2023-06-14T14:11:40;7.10;;;4.20;;
70532;SDS011;58088;51.186;17.130;2023-06-14T14:14:08;9.20;;;4.60;;
70532;SDS011;58088;51.186;17.130;2023-06-14T14:16:35;7.70;;;4.30;;
70532;SDS011;58088;51.186;17.130;2023-06-14T14:19:02;8.70;;;4.10;;
70532;SDS011;58088;51.186;17.130;2023-06-14T14:21:29;7.30;;;4.00;;
70532;SDS011;58088;51.186;17.130;2023-06-14T14:23:55;9.10;;;3.80;;
70532;SDS011;58088;51.186;17.130;2023-06-14T14:26:22;7.70;;;4.30;;
70532;SDS011;58088;51.186;17.130;2023-06-14T14:28:49;9.60;;;4.10;;
70532;SDS011;58088;51.186;17.130;2023-06-14T14:31:15;8.30;;;4.40;;
70532;SDS011;58088;51.186;17.130;2023-06-14T14:33:41;7.10;;;3.50;;
70532;SDS011;58088;51.186;17.130;2023-06-14T14:36:07;7.00;;;4.00;;
70532;SDS011;58088;51.186;17.130;2023-06-14T14:38:34;7.50;;;3.90;;
70532;SDS011;58088;51.186;17.130;2023-06-14T14:41:00;10.90;;;4.60;;
70532;SDS011;58088;51.186;17.130;2023-06-14T14:43:27;9.20;;;4.90;;
70532;SDS011;58088;51.186;17.130;2023-06-14T14:45:57;8.50;;;5.00;;